createdAt,value
2019-04-13T00:00:35.180Z,2.70
2019-04-13T00:06:10.394Z,2.60
2019-04-13T00:11:32.108Z,2.60
2019-04-13T00:16:36.591Z,2.70
2019-04-13T00:21:41.238Z,2.70
2019-04-13T00:26:53.162Z,2.80
2019-04-13T00:31:58.314Z,2.90
2019-04-13T00:37:03.042Z,2.90
2019-04-13T00:42:15.848Z,2.90
2019-04-13T00:47:20.306Z,3.00
2019-04-13T00:52:25.837Z,3.10
2019-04-13T00:57:30.433Z,3.00
2019-04-13T01:02:34.497Z,3.00
2019-04-13T01:07:41.180Z,3.00
2019-04-13T01:13:06.767Z,2.80
2019-04-13T01:18:16.442Z,2.90
2019-04-13T01:23:28.140Z,2.90
2019-04-13T01:28:28.213Z,2.90
2019-04-13T01:33:35.476Z,2.90
2019-04-13T01:38:39.851Z,2.90
2019-04-13T01:43:44.551Z,2.90
2019-04-13T01:48:52.231Z,3.00
2019-04-13T01:53:56.747Z,2.90
2019-04-13T01:59:01.254Z,2.90
2019-04-13T02:04:17.336Z,2.90
2019-04-13T02:09:29.997Z,2.80
2019-04-13T02:14:34.540Z,2.80
2019-04-13T02:19:38.935Z,2.90
2019-04-13T02:24:43.577Z,2.90
2019-04-13T02:29:47.961Z,2.80
2019-04-13T02:34:57.331Z,2.90
2019-04-13T02:40:01.458Z,2.80
2019-04-13T02:45:06.407Z,2.80
2019-04-13T02:50:16.572Z,2.80
2019-04-13T02:55:18.728Z,2.70
2019-04-13T03:00:22.970Z,2.70
2019-04-13T03:05:46.467Z,2.70
2019-04-13T03:10:41.088Z,2.70
2019-04-13T03:16:17.475Z,2.70
2019-04-13T03:21:21.920Z,2.70
2019-04-13T03:26:26.222Z,2.60
2019-04-13T03:31:35.283Z,2.70
2019-04-13T03:36:39.733Z,2.60
2019-04-13T03:41:44.112Z,2.70
2019-04-13T03:46:54.534Z,2.70
2019-04-13T03:51:58.610Z,2.70
2019-04-13T03:57:02.977Z,2.70
2019-04-13T04:02:11.567Z,2.70
2019-04-13T04:07:16.632Z,2.70
2019-04-13T04:12:21.083Z,2.70
2019-04-13T04:17:32.058Z,2.70
2019-04-13T04:22:36.016Z,2.70
2019-04-13T04:27:40.198Z,2.70
2019-04-13T04:32:48.536Z,2.60
2019-04-13T04:37:52.824Z,2.70
2019-04-13T04:42:59.817Z,2.60
2019-04-13T04:48:08.834Z,2.60
2019-04-13T04:53:13.192Z,2.60
2019-04-13T04:58:17.436Z,2.60
2019-04-13T05:03:26.282Z,2.50
2019-04-13T05:08:27.523Z,2.60
2019-04-13T05:13:37.709Z,2.60
2019-04-13T05:18:49.624Z,2.70
2019-04-13T05:23:56.311Z,2.70
2019-04-13T05:29:07.030Z,2.70
2019-04-13T05:34:21.018Z,2.80
2019-04-13T05:39:29.131Z,2.90
2019-04-13T05:44:38.978Z,2.90
2019-04-13T05:49:44.345Z,3.10
2019-04-13T05:54:56.803Z,3.20
2019-04-13T06:00:01.677Z,3.30
2019-04-13T06:05:18.536Z,3.50
2019-04-13T06:10:33.426Z,3.50
2019-04-13T06:15:41.865Z,3.70
2019-04-13T06:20:52.704Z,3.80
2019-04-13T06:26:04.112Z,3.90
2019-04-13T06:31:31.163Z,4.20
2019-04-13T06:36:35.424Z,4.40
2019-04-13T06:41:44.018Z,4.50
2019-04-13T06:47:49.222Z,4.50
2019-04-13T06:52:58.034Z,5.20
2019-04-13T06:58:15.832Z,5.60
2019-04-13T07:03:34.139Z,5.90
2019-04-13T07:09:39.801Z,6.30
2019-04-13T07:20:37.353Z,6.00
2019-04-13T07:25:48.724Z,6.80
2019-04-13T07:31:55.140Z,7.20
2019-04-13T07:37:05.637Z,7.40
2019-04-13T07:42:39.479Z,7.30
2019-04-13T07:48:19.335Z,7.10
2019-04-13T07:53:29.279Z,7.10
2019-04-13T07:58:34.860Z,6.90
2019-04-13T08:03:47.291Z,6.60
2019-04-13T08:08:54.995Z,6.80
2019-04-13T08:14:10.042Z,6.80
2019-04-13T08:19:20.774Z,6.80
2019-04-13T08:24:28.191Z,6.50
2019-04-13T08:29:44.794Z,6.70
2019-04-13T08:35:02.416Z,6.40
2019-04-13T08:40:09.587Z,6.80
2019-04-13T08:45:15.474Z,7.20
2019-04-13T08:50:31.266Z,7.30
2019-04-13T08:55:49.571Z,7.40
2019-04-13T09:00:58.882Z,7.60
2019-04-13T09:06:17.337Z,7.50
2019-04-13T09:11:22.558Z,7.30
2019-04-13T09:16:33.653Z,6.50
2019-04-13T09:22:01.743Z,6.40
2019-04-13T09:27:08.214Z,6.20
2019-04-13T09:32:14.174Z,6.30
2019-04-13T09:37:19.622Z,7.00
2019-04-13T09:42:25.211Z,7.10
2019-04-13T09:47:30.105Z,6.70
2019-04-13T09:52:34.578Z,6.80
2019-04-13T09:57:39.201Z,6.70
2019-04-13T10:02:43.979Z,6.50
2019-04-13T10:07:49.144Z,6.30
2019-04-13T10:13:17.505Z,5.80
2019-04-13T10:18:26.087Z,5.80
2019-04-13T10:23:32.578Z,6.00
2019-04-13T10:28:37.398Z,5.90
2019-04-13T10:33:42.407Z,6.00
2019-04-13T10:38:47.137Z,5.90
2019-04-13T10:43:52.473Z,6.10
2019-04-13T10:49:28.063Z,6.30
2019-04-13T10:54:34.045Z,5.80
2019-04-13T10:59:39.145Z,5.90
2019-04-13T11:04:43.941Z,5.60
2019-04-13T11:09:48.430Z,5.30
2019-04-13T11:14:53.184Z,5.70
2019-04-13T11:19:58.963Z,5.70
2019-04-13T11:25:04.549Z,5.60
2019-04-13T11:30:09.636Z,6.00
2019-04-13T11:35:14.197Z,6.20
2019-04-13T11:40:19.917Z,6.20
2019-04-13T11:45:35.856Z,6.00
2019-04-13T11:50:45.673Z,6.30
2019-04-13T11:55:50.595Z,5.90
2019-04-13T12:01:16.186Z,5.70
2019-04-13T12:06:40.329Z,5.80
2019-04-13T12:12:16.642Z,5.60
2019-04-13T12:17:39.143Z,5.80
2019-04-13T12:22:45.972Z,6.10
2019-04-13T12:27:51.298Z,6.60
2019-04-13T12:32:56.818Z,6.70
2019-04-13T12:38:03.950Z,6.80
2019-04-13T12:43:08.410Z,7.80
2019-04-13T12:48:28.489Z,7.80
2019-04-13T12:53:38.045Z,8.30
2019-04-13T12:58:44.155Z,7.90
2019-04-13T13:03:49.567Z,7.60
2019-04-13T13:08:54.536Z,7.40
2019-04-13T13:14:01.093Z,7.20
2019-04-13T13:19:06.573Z,7.10
2019-04-13T13:24:24.082Z,6.40
2019-04-13T13:29:28.765Z,6.10
2019-04-13T13:34:34.415Z,6.00
2019-04-13T13:39:39.049Z,5.90
2019-04-13T13:44:44.274Z,5.90
2019-04-13T13:49:50.585Z,5.90
2019-04-13T13:54:57.431Z,5.90
2019-04-13T14:00:02.562Z,5.80
2019-04-13T14:05:08.356Z,5.80
2019-04-13T14:10:18.326Z,5.80
2019-04-13T14:15:24.235Z,5.80
2019-04-13T14:20:33.863Z,6.20
2019-04-13T14:25:37.968Z,6.40
2019-04-13T14:30:44.255Z,6.50
2019-04-13T14:35:49.458Z,6.60
2019-04-13T14:40:56.261Z,6.10
2019-04-13T14:46:02.085Z,6.10
2019-04-13T14:51:20.442Z,5.90
2019-04-13T14:56:24.156Z,5.70
2019-04-13T15:01:29.149Z,5.60
2019-04-13T15:06:34.329Z,5.70
2019-04-13T15:11:40.243Z,5.80
2019-04-13T15:16:47.020Z,5.80
2019-04-13T15:21:52.486Z,5.80
2019-04-13T15:26:57.263Z,5.70
2019-04-13T15:32:01.855Z,5.70
2019-04-13T15:37:08.423Z,5.70
2019-04-13T15:42:19.058Z,5.60
2019-04-13T15:47:23.928Z,5.50
2019-04-13T15:52:26.291Z,5.50
2019-04-13T15:57:33.162Z,5.40
2019-04-13T16:02:39.520Z,5.50
2019-04-13T16:07:45.074Z,5.30
2019-04-13T16:12:53.985Z,5.30
2019-04-13T16:18:02.386Z,5.20
2019-04-13T16:23:07.555Z,5.00
2019-04-13T16:28:28.712Z,4.90
2019-04-13T16:33:54.206Z,4.90
2019-04-13T16:39:06.948Z,4.90
2019-04-13T16:44:23.110Z,5.00
2019-04-13T16:49:36.314Z,5.00
2019-04-13T16:55:08.562Z,4.80
2019-04-13T17:00:39.164Z,4.80
2019-04-13T17:05:44.052Z,4.70
2019-04-13T17:10:49.930Z,4.50
2019-04-13T17:15:56.289Z,4.40
2019-04-13T17:21:18.273Z,4.10
2019-04-13T17:26:40.372Z,4.10
2019-04-13T17:32:08.529Z,3.90
2019-04-13T17:37:17.039Z,3.90
2019-04-13T17:42:46.843Z,3.90
2019-04-13T17:48:05.870Z,3.80
2019-04-13T17:53:29.027Z,3.70
2019-04-13T17:58:44.173Z,3.60
2019-04-13T18:04:10.212Z,3.50
2019-04-13T18:09:28.739Z,3.50
2019-04-13T18:14:57.342Z,3.50
2019-04-13T18:20:04.903Z,3.50
2019-04-13T18:25:12.022Z,3.40
2019-04-13T18:30:24.850Z,3.30
2019-04-13T18:35:31.465Z,3.20
2019-04-13T18:40:37.196Z,3.20
2019-04-13T18:45:45.072Z,3.20
2019-04-13T18:50:56.833Z,3.20
2019-04-13T18:56:02.553Z,3.20
2019-04-13T19:01:07.638Z,3.20
2019-04-13T19:06:27.290Z,3.10
2019-04-13T19:11:35.633Z,3.10
2019-04-13T19:16:43.148Z,3.20
2019-04-13T19:21:48.331Z,3.10
2019-04-13T19:26:56.009Z,3.00
2019-04-13T19:32:03.737Z,3.10
2019-04-13T19:37:09.662Z,3.10
2019-04-13T19:42:14.796Z,3.10
2019-04-13T19:47:19.617Z,3.10
2019-04-13T19:52:44.240Z,3.10
2019-04-13T19:57:49.327Z,3.10
2019-04-13T20:02:54.553Z,3.10
2019-04-13T20:08:00.241Z,3.10
2019-04-13T20:13:06.514Z,3.10
2019-04-13T20:18:15.978Z,3.00
2019-04-13T20:23:20.583Z,3.00
2019-04-13T20:28:28.628Z,3.00
2019-04-13T20:33:33.676Z,3.00
2019-04-13T20:38:41.174Z,3.00
2019-04-13T20:43:56.758Z,3.10
2019-04-13T20:48:55.458Z,3.00
2019-04-13T20:54:00.352Z,2.90
2019-04-13T20:59:06.383Z,2.90
2019-04-13T21:04:11.097Z,2.90
2019-04-13T21:09:16.206Z,2.80
2019-04-13T21:14:30.131Z,2.90
2019-04-13T21:19:34.937Z,2.80
2019-04-13T21:24:41.574Z,2.80
2019-04-13T21:29:48.127Z,2.80
2019-04-13T21:34:53.104Z,2.80
2019-04-13T21:39:57.588Z,2.80
2019-04-13T21:45:03.182Z,2.80
2019-04-13T21:50:41.821Z,2.70
2019-04-13T21:55:46.801Z,2.80
2019-04-13T22:01:26.257Z,2.80
2019-04-13T22:06:31.975Z,2.70
2019-04-13T22:11:38.503Z,2.70
2019-04-13T22:16:43.644Z,2.70
2019-04-13T22:21:48.488Z,2.70
2019-04-13T22:27:00.835Z,2.60
2019-04-13T22:32:25.486Z,2.60
2019-04-13T22:37:30.043Z,2.60
2019-04-13T22:42:34.699Z,2.60
2019-04-13T22:47:40.751Z,2.60
2019-04-13T22:53:02.892Z,2.60
2019-04-13T22:58:07.923Z,2.60
2019-04-13T23:03:16.053Z,2.60
2019-04-13T23:08:21.288Z,2.50
2019-04-13T23:13:26.089Z,2.60
2019-04-13T23:18:31.811Z,2.50
2019-04-13T23:23:37.602Z,2.60
2019-04-13T23:28:42.480Z,2.60
2019-04-13T23:33:47.660Z,2.50
2019-04-13T23:38:52.956Z,2.50
2019-04-13T23:44:00.527Z,2.40
2019-04-13T23:49:05.905Z,2.40
2019-04-13T23:54:10.793Z,2.40
2019-04-13T23:59:32.903Z,2.40
